Terminal Aerodrome Forecast
Issued by NWS

Home | Current Version | Previous Version | Text Only | Print | Product List | Glossary On
Versions: 1 2 3 4 5 6 7 8 9 10 11 12 13
148
FTAK31 PAJN 210520
TAFASI
TAF
PASI 210520Z 2106/2206 VRB05KT P6SM OVC060
     FM211000 34006KT P6SM BKN045
     FM211500 06004KT P6SM OVC045
     FM212000 12007KT P6SM VCSH OVC035
     FM220000 30006KT 4SM -SHSN OVC025=

USA.gov is the U.S. government's official web portal to all federal, state and local government web resources and services.